sensor_id;sensor_type;location;lat;lon;timestamp;pressure;altitude;pressure_sealevel;temperature;humidity
31044;BME280;17710;52.520;13.352;2023-05-19T00:01:57;102375.06;;;16.59;39.25
31044;BME280;17710;52.520;13.352;2023-05-19T00:04:26;102374.63;;;16.47;39.38
31044;BME280;17710;52.520;13.352;2023-05-19T00:06:53;102376.34;;;16.48;39.12
31044;BME280;17710;52.520;13.352;2023-05-19T00:09:20;102379.97;;;16.47;39.47
31044;BME280;17710;52.520;13.352;2023-05-19T00:11:47;102379.88;;;16.48;39.15
31044;BME280;17710;52.520;13.352;2023-05-19T00:14:13;102376.25;;;16.51;39.14
31044;BME280;17710;52.520;13.352;2023-05-19T00:16:40;102380.97;;;16.43;39.17
31044;BME280;17710;52.520;13.352;2023-05-19T00:19:07;102375.78;;;16.38;39.23
31044;BME280;17710;52.520;13.352;2023-05-19T00:21:36;102386.00;;;16.25;39.45
31044;BME280;17710;52.520;13.352;2023-05-19T00:24:03;102385.88;;;16.28;39.49
31044;BME280;17710;52.520;13.352;2023-05-19T00:26:30;102384.88;;;16.06;40.02
31044;BME280;17710;52.520;13.352;2023-05-19T00:28:57;102382.16;;;16.34;39.47
31044;BME280;17710;52.520;13.352;2023-05-19T00:31:23;102379.00;;;16.21;39.56
31044;BME280;17710;52.520;13.352;2023-05-19T00:33:50;102378.97;;;16.23;39.47
31044;BME280;17710;52.520;13.352;2023-05-19T00:36:17;102378.72;;;16.30;39.16
31044;BME280;17710;52.520;13.352;2023-05-19T00:38:45;102381.88;;;16.15;39.50
31044;BME280;17710;52.520;13.352;2023-05-19T00:41:11;102376.47;;;16.18;39.61
31044;BME280;17710;52.520;13.352;2023-05-19T00:43:37;102378.63;;;16.07;39.70
31044;BME280;17710;52.520;13.352;2023-05-19T00:46:04;102370.91;;;16.24;39.35
31044;BME280;17710;52.520;13.352;2023-05-19T00:48:31;102378.41;;;16.13;39.39
31044;BME280;17710;52.520;13.352;2023-05-19T00:50:58;102375.44;;;16.22;39.11
31044;BME280;17710;52.520;13.352;2023-05-19T00:53:29;102375.84;;;16.10;39.43
31044;BME280;17710;52.520;13.352;2023-05-19T00:55:59;102379.81;;;15.97;39.81
31044;BME280;17710;52.520;13.352;2023-05-19T00:58:26;102377.75;;;16.07;39.51
31044;BME280;17710;52.520;13.352;2023-05-19T01:00:55;102377.41;;;15.89;39.88
31044;BME280;17710;52.520;13.352;2023-05-19T01:03:27;102381.09;;;15.85;39.70
31044;BME280;17710;52.520;13.352;2023-05-19T01:05:55;102375.75;;;15.85;39.74
31044;BME280;17710;52.520;13.352;2023-05-19T01:08:21;102373.63;;;15.97;39.57
31044;BME280;17710;52.520;13.352;2023-05-19T01:10:48;102376.53;;;15.89;39.75
31044;BME280;17710;52.520;13.352;2023-05-19T01:13:16;102371.31;;;15.86;39.92
31044;BME280;17710;52.520;13.352;2023-05-19T01:15:55;102370.03;;;15.70;40.12
31044;BME280;17710;52.520;13.352;2023-05-19T01:21:19;102373.25;;;15.81;39.86
31044;BME280;17710;52.520;13.352;2023-05-19T01:23:51;102374.59;;;15.66;40.04
31044;BME280;17710;52.520;13.352;2023-05-19T01:26:38;102365.13;;;15.84;39.78
31044;BME280;17710;52.520;13.352;2023-05-19T01:29:27;102369.97;;;15.71;39.90
31044;BME280;17710;52.520;13.352;2023-05-19T01:31:58;102374.59;;;15.66;40.16
31044;BME280;17710;52.520;13.352;2023-05-19T01:34:25;102378.81;;;15.73;39.73
31044;BME280;17710;52.520;13.352;2023-05-19T01:36:53;102383.03;;;15.80;39.55
31044;BME280;17710;52.520;13.352;2023-05-19T01:39:20;102370.03;;;15.70;39.78
31044;BME280;17710;52.520;13.352;2023-05-19T01:41:47;102373.69;;;15.67;39.88
31044;BME280;17710;52.520;13.352;2023-05-19T01:44:14;102377.03;;;15.74;39.69
31044;BME280;17710;52.520;13.352;2023-05-19T01:46:41;102372.75;;;15.68;40.05
31044;BME280;17710;52.520;13.352;2023-05-19T01:49:09;102373.97;;;15.57;40.36
31044;BME280;17710;52.520;13.352;2023-05-19T01:51:36;102369.41;;;15.62;40.08
31044;BME280;17710;52.520;13.352;2023-05-19T01:54:03;102371.28;;;15.58;40.12
31044;BME280;17710;52.520;13.352;2023-05-19T01:56:34;102375.84;;;15.54;40.36
31044;BME280;17710;52.520;13.352;2023-05-19T01:59:15;102381.19;;;15.54;40.23
31044;BME280;17710;52.520;13.352;2023-05-19T02:01:50;102379.53;;;15.49;40.33
31044;BME280;17710;52.520;13.352;2023-05-19T02:04:28;102384.06;;;15.45;40.42
31044;BME280;17710;52.520;13.352;2023-05-19T02:07:00;102376.31;;;15.38;40.66
31044;BME280;17710;52.520;13.352;2023-05-19T02:09:37;102375.88;;;15.53;40.32
31044;BME280;17710;52.520;13.352;2023-05-19T02:12:10;102382.31;;;15.44;40.52
31044;BME280;17710;52.520;13.352;2023-05-19T02:14:44;102378.75;;;15.45;40.24
31044;BME280;17710;52.520;13.352;2023-05-19T02:17:17;102377.19;;;15.38;40.48
31044;BME280;17710;52.520;13.352;2023-05-19T02:19:45;102371.81;;;15.40;40.55
31044;BME280;17710;52.520;13.352;2023-05-19T02:22:11;102367.41;;;15.39;40.30
31044;BME280;17710;52.520;13.352;2023-05-19T02:24:37;102370.97;;;15.38;40.56
31044;BME280;17710;52.520;13.352;2023-05-19T02:27:05;102373.84;;;15.30;40.49
31044;BME280;17710;52.520;13.352;2023-05-19T02:29:32;102371.19;;;15.30;40.57
31044;BME280;17710;52.520;13.352;2023-05-19T02:31:59;102377.19;;;15.38;40.47
31044;BME280;17710;52.520;13.352;2023-05-19T02:34:26;102370.69;;;15.18;40.79
31044;BME280;17710;52.520;13.352;2023-05-19T02:36:53;102376.88;;;15.18;40.87
31044;BME280;17710;52.520;13.352;2023-05-19T02:39:20;102364.78;;;15.08;40.97
31044;BME280;17710;52.520;13.352;2023-05-19T02:41:47;102366.19;;;15.20;40.94
31044;BME280;17710;52.520;13.352;2023-05-19T02:44:13;102363.28;;;15.29;40.57
31044;BME280;17710;52.520;13.352;2023-05-19T02:46:39;102360.66;;;15.27;40.73
31044;BME280;17710;52.520;13.352;2023-05-19T02:49:06;102366.41;;;15.12;40.91
31044;BME280;17710;52.520;13.352;2023-05-19T02:51:32;102363.34;;;15.26;40.60
31044;BME280;17710;52.520;13.352;2023-05-19T02:54:00;102367.03;;;15.52;40.26
31044;BME280;17710;52.520;13.352;2023-05-19T02:56:26;102365.81;;;15.63;40.00
31044;BME280;17710;52.520;13.352;2023-05-19T02:58:53;102372.34;;;15.52;40.22
31044;BME280;17710;52.520;13.352;2023-05-19T03:01:19;102370.41;;;15.58;40.09
31044;BME280;17710;52.520;13.352;2023-05-19T03:03:47;102373.22;;;15.51;40.14
31044;BME280;17710;52.520;13.352;2023-05-19T03:06:13;102362.56;;;15.51;39.92
31044;BME280;17710;52.520;13.352;2023-05-19T03:08:42;102358.13;;;15.53;39.99
31044;BME280;17710;52.520;13.352;2023-05-19T03:11:10;102359.06;;;15.49;40.14
31044;BME280;17710;52.520;13.352;2023-05-19T03:13:36;102360.94;;;15.47;40.37
31044;BME280;17710;52.520;13.352;2023-05-19T03:16:02;102364.72;;;15.39;40.55
31044;BME280;17710;52.520;13.352;2023-05-19T03:18:29;102354.25;;;15.33;40.83
31044;BME280;17710;52.520;13.352;2023-05-19T03:20:55;102356.28;;;15.56;40.35
31044;BME280;17710;52.520;13.352;2023-05-19T03:23:22;102363.28;;;15.58;40.15
31044;BME280;17710;52.520;13.352;2023-05-19T03:25:48;102359.47;;;15.67;40.00
31044;BME280;17710;52.520;13.352;2023-05-19T03:28:16;102360.81;;;15.50;40.45
31044;BME280;17710;52.520;13.352;2023-05-19T03:30:42;102359.13;;;15.48;40.60
31044;BME280;17710;52.520;13.352;2023-05-19T03:33:09;102357.59;;;15.41;40.70
31044;BME280;17710;52.520;13.352;2023-05-19T03:35:35;102360.13;;;15.44;40.52
31044;BME280;17710;52.520;13.352;2023-05-19T03:38:02;102355.03;;;15.36;40.69
31044;BME280;17710;52.520;13.352;2023-05-19T03:40:28;102351.41;;;15.39;40.62
31044;BME280;17710;52.520;13.352;2023-05-19T03:42:55;102352.78;;;15.53;40.52
31044;BME280;17710;52.520;13.352;2023-05-19T03:45:22;102355.97;;;15.35;40.94
31044;BME280;17710;52.520;13.352;2023-05-19T03:47:49;102352.47;;;15.33;41.04
31044;BME280;17710;52.520;13.352;2023-05-19T03:50:15;102358.16;;;15.50;41.00
31044;BME280;17710;52.520;13.352;2023-05-19T03:52:42;102353.88;;;15.45;41.00
31044;BME280;17710;52.520;13.352;2023-05-19T03:55:10;102364.31;;;15.54;40.80
31044;BME280;17710;52.520;13.352;2023-05-19T03:57:38;102352.47;;;15.63;40.59
31044;BME280;17710;52.520;13.352;2023-05-19T04:00:06;102352.38;;;15.36;41.19
31044;BME280;17710;52.520;13.352;2023-05-19T04:02:36;102351.72;;;15.59;40.77
31044;BME280;17710;52.520;13.352;2023-05-19T04:05:03;102354.72;;;15.76;40.56
31044;BME280;17710;52.520;13.352;2023-05-19T04:07:30;102361.72;;;15.80;40.50
31044;BME280;17710;52.520;13.352;2023-05-19T04:09:56;102365.34;;;15.78;40.60
31044;BME280;17710;52.520;13.352;2023-05-19T04:12:23;102360.31;;;15.95;40.16
31044;BME280;17710;52.520;13.352;2023-05-19T04:14:49;102357.56;;;15.98;40.17
31044;BME280;17710;52.520;13.352;2023-05-19T04:17:16;102359.38;;;15.98;40.16
31044;BME280;17710;52.520;13.352;2023-05-19T04:19:45;102356.91;;;16.18;40.01
31044;BME280;17710;52.520;13.352;2023-05-19T04:22:11;102358.75;;;16.16;39.81
31044;BME280;17710;52.520;13.352;2023-05-19T04:24:38;102356.28;;;16.10;39.92
31044;BME280;17710;52.520;13.352;2023-05-19T04:27:04;102363.88;;;16.22;39.88
31044;BME280;17710;52.520;13.352;2023-05-19T04:29:35;102367.34;;;16.25;39.76
31044;BME280;17710;52.520;13.352;2023-05-19T04:32:03;102364.47;;;16.31;39.72
31044;BME280;17710;52.520;13.352;2023-05-19T04:34:31;102367.22;;;16.28;39.85
31044;BME280;17710;52.520;13.352;2023-05-19T04:37:00;102365.84;;;16.43;39.70
31044;BME280;17710;52.520;13.352;2023-05-19T04:39:27;102365.41;;;16.55;39.33
31044;BME280;17710;52.520;13.352;2023-05-19T04:41:53;102370.28;;;16.69;39.28
31044;BME280;17710;52.520;13.352;2023-05-19T04:44:20;102368.00;;;16.83;38.95
31044;BME280;17710;52.520;13.352;2023-05-19T04:46:47;102367.69;;;16.92;38.78
31044;BME280;17710;52.520;13.352;2023-05-19T04:49:14;102363.38;;;16.88;39.03
31044;BME280;17710;52.520;13.352;2023-05-19T04:51:40;102366.41;;;16.79;39.20
31044;BME280;17710;52.520;13.352;2023-05-19T04:54:08;102369.63;;;16.87;39.03
31044;BME280;17710;52.520;13.352;2023-05-19T04:56:34;102373.88;;;17.18;38.59
31044;BME280;17710;52.520;13.352;2023-05-19T04:59:01;102378.50;;;17.36;38.10
31044;BME280;17710;52.520;13.352;2023-05-19T05:01:27;102372.66;;;17.49;38.12
31044;BME280;17710;52.520;13.352;2023-05-19T05:03:55;102376.78;;;17.58;37.86
31044;BME280;17710;52.520;13.352;2023-05-19T05:06:23;102369.31;;;17.89;37.28
31044;BME280;17710;52.520;13.352;2023-05-19T05:08:50;102372.53;;;17.76;37.44
31044;BME280;17710;52.520;13.352;2023-05-19T05:11:18;102372.41;;;18.01;37.03
31044;BME280;17710;52.520;13.352;2023-05-19T05:13:45;102363.03;;;18.32;36.42
31044;BME280;17710;52.520;13.352;2023-05-19T05:16:12;102367.41;;;18.35;36.49
31044;BME280;17710;52.520;13.352;2023-05-19T05:18:39;102367.38;;;18.15;36.85
31044;BME280;17710;52.520;13.352;2023-05-19T05:21:06;102373.78;;;18.53;36.33
31044;BME280;17710;52.520;13.352;2023-05-19T05:23:34;102377.50;;;18.28;36.76
31044;BME280;17710;52.520;13.352;2023-05-19T05:26:08;102373.34;;;18.21;37.07
31044;BME280;17710;52.520;13.352;2023-05-19T05:28:36;102375.75;;;18.06;37.25
31044;BME280;17710;52.520;13.352;2023-05-19T05:31:03;102364.47;;;18.41;36.80
31044;BME280;17710;52.520;13.352;2023-05-19T05:33:29;102374.63;;;18.33;36.66
31044;BME280;17710;52.520;13.352;2023-05-19T05:35:56;102376.88;;;18.22;37.02
31044;BME280;17710;52.520;13.352;2023-05-19T05:38:23;102369.53;;;18.27;37.22
31044;BME280;17710;52.520;13.352;2023-05-19T05:40:49;102376.72;;;18.25;37.22
31044;BME280;17710;52.520;13.352;2023-05-19T05:43:16;102371.72;;;18.17;37.35
31044;BME280;17710;52.520;13.352;2023-05-19T05:45:43;102375.44;;;18.13;37.37
31044;BME280;17710;52.520;13.352;2023-05-19T05:48:10;102368.72;;;18.25;37.48
31044;BME280;17710;52.520;13.352;2023-05-19T05:50:37;102364.94;;;18.30;37.34
31044;BME280;17710;52.520;13.352;2023-05-19T05:53:05;102373.69;;;18.56;36.86
31044;BME280;17710;52.520;13.352;2023-05-19T05:55:32;102373.81;;;18.51;36.82
31044;BME280;17710;52.520;13.352;2023-05-19T05:58:00;102370.03;;;18.37;37.47
31044;BME280;17710;52.520;13.352;2023-05-19T06:00:27;102367.91;;;18.65;36.82
31044;BME280;17710;52.520;13.352;2023-05-19T06:02:55;102370.41;;;18.69;36.73
31044;BME280;17710;52.520;13.352;2023-05-19T06:05:23;102368.34;;;18.56;37.17
31044;BME280;17710;52.520;13.352;2023-05-19T06:07:49;102372.28;;;18.46;37.18
31044;BME280;17710;52.520;13.352;2023-05-19T06:10:16;102365.16;;;18.87;36.84
31044;BME280;17710;52.520;13.352;2023-05-19T06:12:42;102365.69;;;18.95;36.46
31044;BME280;17710;52.520;13.352;2023-05-19T06:15:09;102369.97;;;18.99;36.22
31044;BME280;17710;52.520;13.352;2023-05-19T06:17:36;102370.28;;;19.11;36.03
31044;BME280;17710;52.520;13.352;2023-05-19T06:20:05;102375.66;;;18.91;36.74
31044;BME280;17710;52.520;13.352;2023-05-19T06:22:32;102372.78;;;19.16;36.44
31044;BME280;17710;52.520;13.352;2023-05-19T06:24:59;102372.84;;;19.54;35.80
31044;BME280;17710;52.520;13.352;2023-05-19T06:27:25;102365.00;;;19.68;34.96
31044;BME280;17710;52.520;13.352;2023-05-19T06:29:52;102375.28;;;19.58;35.13
31044;BME280;17710;52.520;13.352;2023-05-19T06:32:19;102376.41;;;19.90;35.14
31044;BME280;17710;52.520;13.352;2023-05-19T06:34:45;102382.44;;;19.95;34.92
31044;BME280;17710;52.520;13.352;2023-05-19T06:37:20;102372.25;;;19.66;35.17
31044;BME280;17710;52.520;13.352;2023-05-19T06:39:47;102377.56;;;20.03;34.65
31044;BME280;17710;52.520;13.352;2023-05-19T06:42:15;102377.09;;;19.95;34.66
31044;BME280;17710;52.520;13.352;2023-05-19T06:44:41;102369.00;;;20.31;34.01
31044;BME280;17710;52.520;13.352;2023-05-19T06:47:08;102369.38;;;20.23;34.61
31044;BME280;17710;52.520;13.352;2023-05-19T06:49:34;102373.94;;;20.57;33.85
31044;BME280;17710;52.520;13.352;2023-05-19T06:52:01;102365.13;;;21.05;33.20
31044;BME280;17710;52.520;13.352;2023-05-19T06:54:28;102361.19;;;20.95;33.16
31044;BME280;17710;52.520;13.352;2023-05-19T06:56:55;102363.53;;;21.19;33.15
31044;BME280;17710;52.520;13.352;2023-05-19T06:59:21;102368.31;;;21.29;32.88
31044;BME280;17710;52.520;13.352;2023-05-19T07:01:47;102374.66;;;21.28;32.65
31044;BME280;17710;52.520;13.352;2023-05-19T07:04:14;102360.84;;;21.19;33.00
31044;BME280;17710;52.520;13.352;2023-05-19T07:06:40;102363.53;;;21.19;33.10
31044;BME280;17710;52.520;13.352;2023-05-19T07:09:07;102365.81;;;21.26;32.98
31044;BME280;17710;52.520;13.352;2023-05-19T07:11:34;102363.41;;;21.37;32.99
31044;BME280;17710;52.520;13.352;2023-05-19T07:14:09;102360.38;;;21.43;32.84
31044;BME280;17710;52.520;13.352;2023-05-19T07:16:40;102365.41;;;21.50;32.70
31044;BME280;17710;52.520;13.352;2023-05-19T07:19:10;102367.31;;;21.63;32.74
31044;BME280;17710;52.520;13.352;2023-05-19T07:21:37;102360.19;;;21.31;33.26
31044;BME280;17710;52.520;13.352;2023-05-19T07:24:04;102366.03;;;21.22;33.61
31044;BME280;17710;52.520;13.352;2023-05-19T07:26:30;102370.81;;;21.65;32.90
31044;BME280;17710;52.520;13.352;2023-05-19T07:28:58;102366.53;;;21.61;32.78
31044;BME280;17710;52.520;13.352;2023-05-19T07:31:24;102367.91;;;22.15;32.24
31044;BME280;17710;52.520;13.352;2023-05-19T07:33:51;102373.09;;;22.34;32.04
31044;BME280;17710;52.520;13.352;2023-05-19T07:36:17;102361.13;;;22.54;31.60
31044;BME280;17710;52.520;13.352;2023-05-19T07:38:44;102364.41;;;22.89;31.19
31044;BME280;17710;52.520;13.352;2023-05-19T07:41:10;102362.31;;;22.64;31.25
31044;BME280;17710;52.520;13.352;2023-05-19T07:43:37;102367.09;;;22.59;31.59
31044;BME280;17710;52.520;13.352;2023-05-19T07:46:05;102360.47;;;22.50;31.76
31044;BME280;17710;52.520;13.352;2023-05-19T07:48:31;102359.56;;;22.20;32.29
31044;BME280;17710;52.520;13.352;2023-05-19T07:50:58;102355.44;;;22.44;32.31
31044;BME280;17710;52.520;13.352;2023-05-19T07:53:24;102357.00;;;22.62;31.82
31044;BME280;17710;52.520;13.352;2023-05-19T07:55:52;102354.50;;;22.59;31.28
31044;BME280;17710;52.520;13.352;2023-05-19T07:58:18;102353.94;;;22.69;31.18
31044;BME280;17710;52.520;13.352;2023-05-19T08:00:46;102349.75;;;22.79;31.21
31044;BME280;17710;52.520;13.352;2023-05-19T08:03:13;102352.38;;;22.64;31.20
31044;BME280;17710;52.520;13.352;2023-05-19T08:05:41;102350.94;;;22.89;31.15
31044;BME280;17710;52.520;13.352;2023-05-19T08:08:08;102346.66;;;22.85;30.97
31044;BME280;17710;52.520;13.352;2023-05-19T08:10:35;102342.47;;;23.09;30.68
31044;BME280;17710;52.520;13.352;2023-05-19T08:13:02;102353.03;;;23.26;30.64
31044;BME280;17710;52.520;13.352;2023-05-19T08:15:29;102346.38;;;23.46;30.39
31044;BME280;17710;52.520;13.352;2023-05-19T08:17:55;102350.09;;;23.72;29.80
31044;BME280;17710;52.520;13.352;2023-05-19T08:20:23;102345.53;;;23.87;29.48
31044;BME280;17710;52.520;13.352;2023-05-19T08:22:49;102349.72;;;24.32;28.73
31044;BME280;17710;52.520;13.352;2023-05-19T08:25:16;102346.03;;;24.06;29.35
31044;BME280;17710;52.520;13.352;2023-05-19T08:27:43;102360.84;;;24.00;29.62
31044;BME280;17710;52.520;13.352;2023-05-19T08:30:11;102351.41;;;23.93;29.12
31044;BME280;17710;52.520;13.352;2023-05-19T08:32:37;102354.28;;;23.90;29.24
31044;BME280;17710;52.520;13.352;2023-05-19T08:35:04;102363.56;;;23.86;29.54
31044;BME280;17710;52.520;13.352;2023-05-19T08:37:32;102355.34;;;23.61;29.77
31044;BME280;17710;52.520;13.352;2023-05-19T08:40:01;102346.78;;;23.54;29.54
31044;BME280;17710;52.520;13.352;2023-05-19T08:42:29;102349.47;;;23.40;29.31
31044;BME280;17710;52.520;13.352;2023-05-19T08:44:57;102347.94;;;23.22;29.54
31044;BME280;17710;52.520;13.352;2023-05-19T08:47:23;102347.66;;;23.26;29.87
31044;BME280;17710;52.520;13.352;2023-05-19T08:49:58;102345.91;;;23.54;29.70
31044;BME280;17710;52.520;13.352;2023-05-19T08:52:34;102341.16;;;23.57;29.04
31044;BME280;17710;52.520;13.352;2023-05-19T08:55:08;102338.72;;;23.81;28.57
31044;BME280;17710;52.520;13.352;2023-05-19T08:57:38;102340.75;;;24.04;27.92
31044;BME280;17710;52.520;13.352;2023-05-19T09:00:06;102331.78;;;24.04;28.14
31044;BME280;17710;52.520;13.352;2023-05-19T09:02:37;102333.28;;;23.95;27.44
31044;BME280;17710;52.520;13.352;2023-05-19T09:05:04;102327.50;;;24.14;27.27
31044;BME280;17710;52.520;13.352;2023-05-19T09:07:34;102316.56;;;24.42;26.68
31044;BME280;17710;52.520;13.352;2023-05-19T09:10:02;102322.00;;;24.80;25.93
31044;BME280;17710;52.520;13.352;2023-05-19T09:12:30;102320.38;;;24.52;27.04
31044;BME280;17710;52.520;13.352;2023-05-19T09:14:56;102322.53;;;24.60;26.48
31044;BME280;17710;52.520;13.352;2023-05-19T09:17:23;102317.66;;;24.40;26.48
31044;BME280;17710;52.520;13.352;2023-05-19T09:19:49;102311.19;;;24.68;25.87
31044;BME280;17710;52.520;13.352;2023-05-19T09:22:16;102315.06;;;24.76;25.18
31044;BME280;17710;52.520;13.352;2023-05-19T09:24:45;102307.28;;;24.59;25.08
31044;BME280;17710;52.520;13.352;2023-05-19T09:27:13;102296.75;;;24.29;25.75
31044;BME280;17710;52.520;13.352;2023-05-19T09:29:41;102302.88;;;24.18;25.86
31044;BME280;17710;52.520;13.352;2023-05-19T09:32:08;102296.47;;;24.34;26.21
31044;BME280;17710;52.520;13.352;2023-05-19T09:34:39;102304.59;;;24.59;25.95
31044;BME280;17710;52.520;13.352;2023-05-19T09:37:06;102297.56;;;24.56;25.77
31044;BME280;17710;52.520;13.352;2023-05-19T09:39:33;102294.41;;;24.88;25.17
31044;BME280;17710;52.520;13.352;2023-05-19T09:42:03;102300.84;;;24.99;25.02
31044;BME280;17710;52.520;13.352;2023-05-19T09:44:30;102300.28;;;25.07;25.08
31044;BME280;17710;52.520;13.352;2023-05-19T09:46:57;102299.09;;;24.98;25.02
31044;BME280;17710;52.520;13.352;2023-05-19T09:49:24;102296.38;;;24.73;25.41
31044;BME280;17710;52.520;13.352;2023-05-19T09:51:53;102295.59;;;24.46;24.88
31044;BME280;17710;52.520;13.352;2023-05-19T09:54:21;102292.47;;;25.02;24.67
31044;BME280;17710;52.520;13.352;2023-05-19T09:56:55;102286.34;;;25.00;24.21
31044;BME280;17710;52.520;13.352;2023-05-19T09:59:24;102281.28;;;25.32;24.27
31044;BME280;17710;52.520;13.352;2023-05-19T10:01:53;102274.16;;;25.31;24.67
31044;BME280;17710;52.520;13.352;2023-05-19T10:04:20;102280.19;;;25.35;24.11
31044;BME280;17710;52.520;13.352;2023-05-19T10:06:49;102277.81;;;25.30;23.71
31044;BME280;17710;52.520;13.352;2023-05-19T10:09:19;102273.06;;;25.21;24.20
31044;BME280;17710;52.520;13.352;2023-05-19T10:11:47;102271.19;;;24.60;24.90
31044;BME280;17710;52.520;13.352;2023-05-19T10:14:14;102263.81;;;24.49;24.79
31044;BME280;17710;52.520;13.352;2023-05-19T10:16:43;102259.94;;;24.66;24.77
31044;BME280;17710;52.520;13.352;2023-05-19T10:19:11;102262.75;;;24.65;24.83
31044;BME280;17710;52.520;13.352;2023-05-19T10:21:39;102271.38;;;24.70;25.21
31044;BME280;17710;52.520;13.352;2023-05-19T10:24:05;102272.34;;;24.69;25.23
31044;BME280;17710;52.520;13.352;2023-05-19T10:26:33;102272.94;;;24.61;25.48
31044;BME280;17710;52.520;13.352;2023-05-19T10:29:01;102266.84;;;24.83;25.30
31044;BME280;17710;52.520;13.352;2023-05-19T10:31:29;102270.25;;;25.23;25.05
31044;BME280;17710;52.520;13.352;2023-05-19T10:34:18;102264.47;;;25.04;24.71
31044;BME280;17710;52.520;13.352;2023-05-19T10:36:55;102263.72;;;25.01;24.79
31044;BME280;17710;52.520;13.352;2023-05-19T10:39:24;102262.66;;;24.53;24.95
31044;BME280;17710;52.520;13.352;2023-05-19T10:42:01;102261.53;;;24.81;24.51
31044;BME280;17710;52.520;13.352;2023-05-19T10:44:37;102268.38;;;24.74;24.69
31044;BME280;17710;52.520;13.352;2023-05-19T10:47:06;102259.19;;;24.64;24.70
31044;BME280;17710;52.520;13.352;2023-05-19T10:49:35;102264.03;;;24.84;24.52
31044;BME280;17710;52.520;13.352;2023-05-19T10:52:01;102267.06;;;24.80;24.52
31044;BME280;17710;52.520;13.352;2023-05-19T10:54:38;102255.16;;;24.82;24.43
31044;BME280;17710;52.520;13.352;2023-05-19T10:57:07;102250.56;;;25.21;24.31
31044;BME280;17710;52.520;13.352;2023-05-19T10:59:34;102248.13;;;25.05;24.31
31044;BME280;17710;52.520;13.352;2023-05-19T11:02:02;102249.31;;;25.14;24.52
31044;BME280;17710;52.520;13.352;2023-05-19T11:04:44;102251.78;;;25.17;24.24
31044;BME280;17710;52.520;13.352;2023-05-19T11:07:15;102250.81;;;25.18;24.52
31044;BME280;17710;52.520;13.352;2023-05-19T11:09:42;102242.97;;;25.38;24.37
31044;BME280;17710;52.520;13.352;2023-05-19T11:12:09;102240.06;;;25.65;23.80
31044;BME280;17710;52.520;13.352;2023-05-19T11:14:35;102248.66;;;25.10;24.49
31044;BME280;17710;52.520;13.352;2023-05-19T11:17:03;102245.88;;;24.86;24.34
31044;BME280;17710;52.520;13.352;2023-05-19T11:19:31;102253.78;;;25.38;24.11
31044;BME280;17710;52.520;13.352;2023-05-19T11:22:08;102236.69;;;25.38;24.05
31044;BME280;17710;52.520;13.352;2023-05-19T11:24:36;102238.53;;;25.61;24.17
31044;BME280;17710;52.520;13.352;2023-05-19T11:27:19;102241.56;;;25.57;24.16
31044;BME280;17710;52.520;13.352;2023-05-19T11:29:46;102228.66;;;25.36;24.12
31044;BME280;17710;52.520;13.352;2023-05-19T11:32:13;102235.13;;;25.59;23.91
31044;BME280;17710;52.520;13.352;2023-05-19T11:34:40;102229.75;;;25.34;24.15
31044;BME280;17710;52.520;13.352;2023-05-19T11:37:08;102236.97;;;25.59;24.02
31044;BME280;17710;52.520;13.352;2023-05-19T11:39:34;102227.34;;;25.42;24.04
31044;BME280;17710;52.520;13.352;2023-05-19T11:42:01;102227.91;;;25.71;23.93
31044;BME280;17710;52.520;13.352;2023-05-19T11:44:27;102222.53;;;25.82;24.04
31044;BME280;17710;52.520;13.352;2023-05-19T11:46:53;102236.63;;;25.51;24.08
31044;BME280;17710;52.520;13.352;2023-05-19T11:49:20;102231.72;;;25.32;23.84
31044;BME280;17710;52.520;13.352;2023-05-19T11:51:46;102226.06;;;25.35;23.87
31044;BME280;17710;52.520;13.352;2023-05-19T11:54:14;102233.16;;;25.49;24.11
31044;BME280;17710;52.520;13.352;2023-05-19T11:56:41;102230.34;;;25.50;23.84
31044;BME280;17710;52.520;13.352;2023-05-19T11:59:08;102232.06;;;25.64;23.73
31044;BME280;17710;52.520;13.352;2023-05-19T12:01:35;102222.25;;;26.09;23.32
31044;BME280;17710;52.520;13.352;2023-05-19T12:04:01;102228.72;;;25.95;23.16
31044;BME280;17710;52.520;13.352;2023-05-19T12:06:28;102232.59;;;25.80;23.31
31044;BME280;17710;52.520;13.352;2023-05-19T12:08:55;102243.69;;;25.77;23.11
31044;BME280;17710;52.520;13.352;2023-05-19T12:11:27;102235.00;;;25.48;22.96
31044;BME280;17710;52.520;13.352;2023-05-19T12:13:57;102230.75;;;25.57;22.77
31044;BME280;17710;52.520;13.352;2023-05-19T12:16:31;102224.72;;;25.53;22.78
31044;BME280;17710;52.520;13.352;2023-05-19T12:18:58;102225.97;;;25.60;22.78
31044;BME280;17710;52.520;13.352;2023-05-19T12:21:25;102227.63;;;25.98;22.50
31044;BME280;17710;52.520;13.352;2023-05-19T12:23:51;102224.66;;;26.01;22.34
31044;BME280;17710;52.520;13.352;2023-05-19T12:26:18;102218.53;;;25.99;21.90
31044;BME280;17710;52.520;13.352;2023-05-19T12:28:48;102220.06;;;25.79;22.57
31044;BME280;17710;52.520;13.352;2023-05-19T12:31:15;102211.09;;;25.90;22.65
31044;BME280;17710;52.520;13.352;2023-05-19T12:33:41;102216.09;;;25.72;22.61
31044;BME280;17710;52.520;13.352;2023-05-19T12:36:08;102210.88;;;25.93;22.73
31044;BME280;17710;52.520;13.352;2023-05-19T12:38:37;102211.72;;;26.28;22.53
31044;BME280;17710;52.520;13.352;2023-05-19T12:41:04;102205.06;;;26.32;22.24
31044;BME280;17710;52.520;13.352;2023-05-19T12:43:31;102204.84;;;26.00;22.13
31044;BME280;17710;52.520;13.352;2023-05-19T12:46:08;102201.72;;;25.83;22.37
31044;BME280;17710;52.520;13.352;2023-05-19T12:48:39;102200.53;;;25.63;22.98